createdAt,value
2018-05-07T00:00:44.362Z,34.60
2018-05-07T00:03:15.903Z,34.80
2018-05-07T00:05:47.292Z,35.00
2018-05-07T00:08:18.834Z,34.90
2018-05-07T00:10:50.757Z,35.00
2018-05-07T00:13:22.163Z,35.10
2018-05-07T00:15:53.827Z,35.20
2018-05-07T00:18:25.241Z,35.30
2018-05-07T00:20:57.339Z,35.50
2018-05-07T00:23:28.690Z,35.50
2018-05-07T00:26:00.046Z,35.70
2018-05-07T00:28:31.426Z,35.80
2018-05-07T00:31:02.799Z,35.80
2018-05-07T00:33:34.514Z,36.00
2018-05-07T00:36:05.950Z,36.20
2018-05-07T00:38:37.518Z,36.60
2018-05-07T00:41:09.157Z,37.00
2018-05-07T00:43:40.590Z,37.60
2018-05-07T00:46:12.037Z,38.00
2018-05-07T00:48:44.147Z,38.50
2018-05-07T00:51:15.509Z,38.60
2018-05-07T00:53:46.826Z,38.40
2018-05-07T00:56:18.196Z,38.90
2018-05-07T00:58:49.661Z,39.00
2018-05-07T01:01:21.113Z,39.10
2018-05-07T01:03:52.444Z,39.00
2018-05-07T01:06:23.830Z,39.10
2018-05-07T01:08:55.224Z,39.20
2018-05-07T01:11:26.567Z,39.40
2018-05-07T01:13:57.916Z,39.60
2018-05-07T01:16:29.998Z,39.90
2018-05-07T01:19:01.489Z,40.00
2018-05-07T01:21:32.811Z,39.90
2018-05-07T01:24:04.170Z,40.00
2018-05-07T01:26:35.305Z,40.20
2018-05-07T01:29:07.590Z,40.30
2018-05-07T01:31:39.049Z,40.30
2018-05-07T01:34:10.407Z,40.00
2018-05-07T01:36:41.718Z,39.90
2018-05-07T01:39:14.121Z,39.80
2018-05-07T01:41:45.450Z,39.80
2018-05-07T01:44:16.451Z,39.70
2018-05-07T01:46:47.705Z,39.90
2018-05-07T01:49:19.110Z,40.20
2018-05-07T01:51:50.537Z,40.00
2018-05-07T01:54:21.896Z,40.30
2018-05-07T01:56:53.233Z,40.30
2018-05-07T01:59:24.761Z,40.50
2018-05-07T02:01:56.252Z,40.60
2018-05-07T02:04:27.601Z,40.70
2018-05-07T02:06:59.051Z,40.60
2018-05-07T02:09:30.420Z,40.60
2018-05-07T02:12:01.768Z,40.50
2018-05-07T02:14:33.158Z,40.60
2018-05-07T02:17:04.634Z,40.70
2018-05-07T02:19:36.782Z,40.90
2018-05-07T02:22:08.926Z,41.00
2018-05-07T02:24:40.354Z,41.10
2018-05-07T02:27:11.781Z,41.00
2018-05-07T02:29:43.529Z,41.00
2018-05-07T02:32:14.929Z,41.00
2018-05-07T02:34:46.488Z,41.10
2018-05-07T02:37:18.422Z,41.40
2018-05-07T02:39:49.935Z,41.50
2018-05-07T02:42:21.091Z,41.70
2018-05-07T02:44:53.204Z,41.80
2018-05-07T02:47:24.758Z,41.90
2018-05-07T02:49:56.232Z,41.90
2018-05-07T02:52:27.986Z,41.90
2018-05-07T02:54:59.357Z,42.00
2018-05-07T02:57:30.529Z,42.00
2018-05-07T03:00:02.996Z,42.10
2018-05-07T03:02:34.175Z,42.20
2018-05-07T03:05:04.839Z,42.20
2018-05-07T03:07:36.027Z,42.30
2018-05-07T03:10:07.257Z,42.30
2018-05-07T03:12:38.428Z,42.40
2018-05-07T03:15:09.639Z,42.70
2018-05-07T03:17:41.153Z,42.80
2018-05-07T03:20:13.346Z,42.80
2018-05-07T03:22:44.910Z,42.90
2018-05-07T03:25:16.292Z,43.00
2018-05-07T03:27:48.375Z,42.90
2018-05-07T03:30:20.482Z,42.90
2018-05-07T03:32:52.798Z,43.10
2018-05-07T03:35:25.018Z,43.10
2018-05-07T03:37:56.351Z,43.10
2018-05-07T03:40:29.276Z,43.40
2018-05-07T03:43:01.106Z,43.50
2018-05-07T03:45:32.437Z,43.30
2018-05-07T03:48:05.087Z,43.40
2018-05-07T03:50:36.977Z,43.60
2018-05-07T03:53:08.331Z,43.70
2018-05-07T03:55:38.977Z,43.60
2018-05-07T03:58:10.354Z,43.80
2018-05-07T04:00:42.424Z,43.90
2018-05-07T04:03:13.793Z,44.10
2018-05-07T04:05:44.825Z,43.90
2018-05-07T04:08:16.939Z,44.00
2018-05-07T04:10:48.648Z,44.10
2018-05-07T04:13:20.036Z,44.00
2018-05-07T04:15:51.551Z,44.20
2018-05-07T04:18:39.534Z,44.20
2018-05-07T04:21:16.615Z,44.40
2018-05-07T04:24:04.732Z,44.30
2018-05-07T04:26:36.117Z,44.40
2018-05-07T04:29:07.501Z,44.40
2018-05-07T04:31:39.793Z,44.50
2018-05-07T04:34:11.122Z,44.50
2018-05-07T04:36:43.042Z,44.80
2018-05-07T04:39:14.738Z,44.70
2018-05-07T04:41:46.296Z,44.90
2018-05-07T04:44:17.675Z,45.00
2018-05-07T04:46:48.995Z,44.80
2018-05-07T04:49:21.167Z,45.00
2018-05-07T04:51:53.291Z,45.00
2018-05-07T04:54:24.618Z,45.00
2018-05-07T04:56:55.989Z,45.10
2018-05-07T04:59:27.350Z,45.20
2018-05-07T05:01:58.486Z,45.40
2018-05-07T05:04:29.839Z,45.40
2018-05-07T05:07:01.219Z,45.30
2018-05-07T05:09:32.602Z,45.40
2018-05-07T05:12:03.954Z,45.40
2018-05-07T05:14:35.454Z,45.40
2018-05-07T05:17:08.609Z,45.70
2018-05-07T05:19:39.974Z,45.70
2018-05-07T05:22:11.083Z,45.60
2018-05-07T05:24:43.237Z,45.70
2018-05-07T05:27:15.570Z,46.30
2018-05-07T05:29:46.917Z,45.60
2018-05-07T05:32:18.376Z,45.60
2018-05-07T05:34:49.801Z,45.50
2018-05-07T05:37:21.589Z,45.50
2018-05-07T05:39:53.236Z,45.50
2018-05-07T05:42:24.714Z,45.50
2018-05-07T05:44:56.054Z,45.60
2018-05-07T05:47:27.393Z,45.50
2018-05-07T05:49:59.151Z,45.60
2018-05-07T05:52:31.475Z,45.50
2018-05-07T05:55:02.833Z,45.60
2018-05-07T05:57:34.901Z,45.40
2018-05-07T06:00:06.279Z,45.50
2018-05-07T06:02:37.739Z,45.40
2018-05-07T06:05:09.113Z,45.40
2018-05-07T06:07:40.491Z,45.30
2018-05-07T06:10:11.727Z,45.40
2018-05-07T06:12:43.834Z,45.40
2018-05-07T06:15:15.322Z,45.40
2018-05-07T06:17:46.720Z,45.30
2018-05-07T06:20:18.782Z,45.30
2018-05-07T06:22:50.171Z,45.30
2018-05-07T06:25:21.555Z,45.30
2018-05-07T06:27:52.909Z,45.20
2018-05-07T06:30:24.462Z,45.20
2018-05-07T06:32:55.789Z,45.50
2018-05-07T06:35:28.067Z,45.30
2018-05-07T06:37:59.464Z,45.20
2018-05-07T06:40:30.873Z,45.30
2018-05-07T06:43:03.035Z,44.90
2018-05-07T06:45:34.424Z,45.20
2018-05-07T06:48:06.026Z,45.10
2018-05-07T06:50:38.937Z,45.00
2018-05-07T06:53:10.316Z,44.90
2018-05-07T06:55:42.494Z,45.10
2018-05-07T06:58:13.892Z,45.00
2018-05-07T07:00:45.130Z,44.90
2018-05-07T07:03:16.453Z,44.80
2018-05-07T07:05:47.902Z,44.80
2018-05-07T07:08:19.423Z,44.70
2018-05-07T07:10:50.867Z,44.70
2018-05-07T07:13:22.269Z,44.60
2018-05-07T07:15:53.787Z,44.20
2018-05-07T07:18:25.322Z,44.60
2018-05-07T07:20:56.805Z,44.20
2018-05-07T07:23:28.283Z,44.10
2018-05-07T07:26:00.923Z,44.20
2018-05-07T07:28:33.106Z,44.10
2018-05-07T07:31:04.111Z,44.00
2018-05-07T07:33:35.441Z,44.10
2018-05-07T07:36:06.804Z,44.00
2018-05-07T07:38:38.235Z,43.90
2018-05-07T07:41:09.582Z,43.80
2018-05-07T07:43:40.950Z,43.80
2018-05-07T07:46:12.303Z,43.70
2018-05-07T07:48:43.674Z,43.90
2018-05-07T07:51:15.781Z,43.80
2018-05-07T07:53:47.203Z,43.60
2018-05-07T07:56:18.738Z,43.50
2018-05-07T07:58:50.870Z,44.10
2018-05-07T08:01:22.222Z,43.40
2018-05-07T08:03:53.587Z,43.30
2018-05-07T08:06:24.985Z,43.20
2018-05-07T08:08:57.299Z,43.20
2018-05-07T08:11:28.702Z,43.00
2018-05-07T08:14:00.842Z,42.70
2018-05-07T08:16:32.186Z,42.70
2018-05-07T08:19:03.992Z,42.90
2018-05-07T08:21:36.202Z,42.60
2018-05-07T08:24:07.552Z,42.60
2018-05-07T08:26:38.920Z,42.60
2018-05-07T08:29:10.483Z,42.50
2018-05-07T08:31:41.831Z,42.40
2018-05-07T08:34:13.224Z,42.40
2018-05-07T08:36:44.614Z,42.40
2018-05-07T08:39:16.150Z,42.20
2018-05-07T08:41:47.601Z,41.80
2018-05-07T08:44:19.019Z,41.90
2018-05-07T08:46:50.454Z,41.90
2018-05-07T08:49:21.823Z,41.80
2018-05-07T08:51:53.291Z,41.60
2018-05-07T08:54:25.009Z,41.40
2018-05-07T08:56:56.414Z,41.40
2018-05-07T08:59:27.925Z,41.20
2018-05-07T09:02:00.141Z,40.90
2018-05-07T09:04:31.552Z,40.80
2018-05-07T09:07:03.690Z,40.40
2018-05-07T09:09:36.005Z,40.50
2018-05-07T09:12:08.138Z,40.60
2018-05-07T09:14:39.701Z,40.50
2018-05-07T09:17:10.880Z,40.30
2018-05-07T09:19:41.985Z,40.20
2018-05-07T09:22:13.416Z,39.90
2018-05-07T09:24:44.884Z,39.60
2018-05-07T09:27:16.229Z,39.70
2018-05-07T09:29:47.594Z,39.80
2018-05-07T09:32:19.281Z,39.80
2018-05-07T09:34:50.274Z,39.50
2018-05-07T09:37:23.146Z,39.20
2018-05-07T09:39:54.498Z,39.10
2018-05-07T09:42:26.659Z,39.10
2018-05-07T09:44:57.985Z,38.90
2018-05-07T09:47:29.487Z,39.00
2018-05-07T09:50:00.891Z,38.20
2018-05-07T09:52:32.241Z,38.60
2018-05-07T09:55:03.647Z,37.60
2018-05-07T09:57:35.080Z,37.90
2018-05-07T10:00:06.157Z,37.50
2018-05-07T10:02:37.688Z,37.40
2018-05-07T10:05:09.598Z,37.80
2018-05-07T10:07:41.042Z,37.60
2018-05-07T10:10:13.529Z,38.00
2018-05-07T10:12:44.966Z,37.80
2018-05-07T10:15:17.112Z,37.40
2018-05-07T10:17:49.238Z,37.40
2018-05-07T10:20:20.882Z,37.10
2018-05-07T10:22:52.812Z,36.70
2018-05-07T10:25:24.699Z,36.10
2018-05-07T10:27:56.427Z,35.00
2018-05-07T10:30:28.409Z,34.60
2018-05-07T10:33:00.345Z,34.00
2018-05-07T10:35:33.033Z,33.40
2018-05-07T10:38:04.614Z,33.10
2018-05-07T10:40:36.521Z,32.80
2018-05-07T10:43:08.958Z,31.20
2018-05-07T10:45:40.853Z,30.90
2018-05-07T10:48:13.560Z,29.60
2018-05-07T10:50:45.548Z,29.70
2018-05-07T10:53:17.770Z,29.00
2018-05-07T10:55:50.406Z,28.90
2018-05-07T10:58:22.322Z,28.30
2018-05-07T11:00:55.027Z,28.30
2018-05-07T11:03:29.898Z,28.20
2018-05-07T11:06:02.618Z,27.20
2018-05-07T11:08:34.301Z,27.50
2018-05-07T11:11:06.528Z,27.70
2018-05-07T11:13:38.595Z,27.00
2018-05-07T11:16:10.721Z,26.70
2018-05-07T11:18:42.589Z,26.70
2018-05-07T11:21:14.536Z,26.50
2018-05-07T11:23:46.515Z,26.30
2018-05-07T11:26:18.420Z,25.80
2018-05-07T11:28:50.320Z,25.90
2018-05-07T11:31:22.294Z,25.40
2018-05-07T11:33:54.171Z,25.20
2018-05-07T11:36:26.266Z,24.70
2018-05-07T11:38:58.144Z,24.60
2018-05-07T11:41:30.107Z,24.40
2018-05-07T11:44:02.881Z,23.90
2018-05-07T11:46:34.831Z,23.80
2018-05-07T11:49:06.737Z,24.10
2018-05-07T11:51:38.758Z,23.40
2018-05-07T11:54:10.718Z,23.30
2018-05-07T11:56:42.715Z,22.80
2018-05-07T11:59:14.679Z,22.70
2018-05-07T12:01:47.366Z,21.90
2018-05-07T12:04:19.330Z,21.80
2018-05-07T12:06:52.012Z,21.30
2018-05-07T12:09:24.015Z,21.20
2018-05-07T12:11:56.222Z,21.40
2018-05-07T12:14:29.008Z,21.40
2018-05-07T12:17:00.926Z,21.30
2018-05-07T12:19:33.029Z,21.00
2018-05-07T12:22:06.454Z,20.70
2018-05-07T12:24:43.909Z,20.60
2018-05-07T12:27:15.844Z,21.00
2018-05-07T12:29:47.749Z,20.90
2018-05-07T12:32:20.740Z,20.70
2018-05-07T12:34:53.447Z,20.20
2018-05-07T12:37:25.501Z,20.60
2018-05-07T12:39:58.474Z,20.40
2018-05-07T12:42:31.521Z,19.70
2018-05-07T12:45:03.417Z,19.90
2018-05-07T12:47:35.081Z,19.70
2018-05-07T12:50:07.788Z,19.80
2018-05-07T12:52:39.713Z,19.70
2018-05-07T12:55:11.548Z,19.80
2018-05-07T12:57:44.087Z,19.90
2018-05-07T13:00:15.758Z,19.80
2018-05-07T13:02:47.674Z,19.70
2018-05-07T13:05:19.405Z,19.80
2018-05-07T13:07:51.817Z,19.50
2018-05-07T13:10:24.455Z,19.10
2018-05-07T13:12:56.460Z,19.00
2018-05-07T13:15:30.357Z,18.20
2018-05-07T13:18:03.958Z,17.90
2018-05-07T13:20:35.849Z,17.90
2018-05-07T13:23:07.814Z,18.40
2018-05-07T13:25:39.737Z,18.50
2018-05-07T13:28:11.985Z,18.50
2018-05-07T13:30:43.901Z,18.60
2018-05-07T13:33:15.614Z,18.80
2018-05-07T13:35:48.165Z,18.70
2018-05-07T13:38:20.227Z,18.60
2018-05-07T13:40:52.171Z,18.80
2018-05-07T13:43:24.348Z,19.10
2018-05-07T13:45:56.380Z,19.40
2018-05-07T13:48:28.307Z,19.50
2018-05-07T13:51:00.240Z,19.60
2018-05-07T13:53:32.190Z,19.80
2018-05-07T13:56:04.929Z,20.10
2018-05-07T13:58:36.590Z,20.10
2018-05-07T14:01:08.508Z,20.10
2018-05-07T14:03:40.489Z,19.90
2018-05-07T14:06:12.434Z,19.90
2018-05-07T14:08:44.376Z,19.90
2018-05-07T14:11:16.343Z,20.20
2018-05-07T14:13:47.679Z,20.10
2018-05-07T14:16:20.411Z,20.90
2018-05-07T14:18:52.556Z,20.40
2018-05-07T14:21:25.216Z,20.80
2018-05-07T14:23:57.925Z,21.10
2018-05-07T14:26:29.848Z,21.10
2018-05-07T14:29:03.295Z,21.20
2018-05-07T14:31:34.613Z,21.20
2018-05-07T14:34:07.294Z,21.30
2018-05-07T14:36:40.201Z,21.50
2018-05-07T14:39:12.132Z,21.50
2018-05-07T14:41:44.809Z,21.90
2018-05-07T14:44:16.830Z,21.90
2018-05-07T14:46:48.343Z,22.00
2018-05-07T14:49:19.735Z,22.10
2018-05-07T14:51:51.757Z,22.20
2018-05-07T14:54:23.655Z,22.40
2018-05-07T14:56:57.764Z,22.40
2018-05-07T14:59:33.219Z,22.70
2018-05-07T15:02:05.313Z,22.60
2018-05-07T15:04:37.671Z,22.50
2018-05-07T15:07:11.261Z,22.40
2018-05-07T15:09:43.734Z,22.40
2018-05-07T15:12:16.356Z,22.40
2018-05-07T15:14:48.288Z,22.30
2018-05-07T15:17:20.514Z,22.20
2018-05-07T15:19:53.248Z,21.90
2018-05-07T15:22:25.622Z,21.90
2018-05-07T15:24:57.381Z,21.90
2018-05-07T15:27:28.995Z,21.80
2018-05-07T15:30:00.981Z,21.90
2018-05-07T15:32:32.281Z,22.00
2018-05-07T15:35:03.576Z,22.20
2018-05-07T15:37:35.417Z,22.40
2018-05-07T15:40:06.818Z,22.50
2018-05-07T15:42:38.212Z,22.60
2018-05-07T15:45:09.651Z,22.70
2018-05-07T15:47:41.359Z,22.70
2018-05-07T15:50:12.719Z,22.90
2018-05-07T15:52:44.125Z,23.10
2018-05-07T15:55:15.557Z,23.20
2018-05-07T15:57:47.534Z,23.30
2018-05-07T16:00:19.153Z,23.70
2018-05-07T16:02:50.560Z,23.30
2018-05-07T16:05:22.130Z,23.50
2018-05-07T16:07:55.143Z,23.40
2018-05-07T16:10:26.549Z,23.40
2018-05-07T16:12:57.906Z,23.50
2018-05-07T16:15:29.302Z,23.60
2018-05-07T16:18:01.672Z,23.70
2018-05-07T16:20:33.818Z,23.80
2018-05-07T16:23:05.550Z,23.90
2018-05-07T16:25:37.041Z,23.80
2018-05-07T16:28:09.053Z,23.70
2018-05-07T16:30:40.688Z,23.80
2018-05-07T16:33:12.044Z,23.80
2018-05-07T16:35:44.472Z,23.90
2018-05-07T16:38:16.043Z,23.90
2018-05-07T16:40:47.419Z,23.90
2018-05-07T16:43:18.763Z,23.80
2018-05-07T16:45:50.217Z,23.80
2018-05-07T16:48:21.594Z,23.90
2018-05-07T16:50:52.981Z,23.80
2018-05-07T16:53:24.413Z,23.90
2018-05-07T16:55:56.074Z,24.00
2018-05-07T16:58:27.470Z,23.90
2018-05-07T17:00:58.816Z,23.90
2018-05-07T17:03:30.408Z,23.80
2018-05-07T17:06:01.799Z,23.80
2018-05-07T17:08:33.936Z,23.90
2018-05-07T17:11:05.352Z,23.80
2018-05-07T17:13:37.021Z,23.90
2018-05-07T17:16:08.563Z,23.80
2018-05-07T17:18:39.936Z,23.80
2018-05-07T17:21:11.359Z,23.70
2018-05-07T17:23:42.694Z,23.80
2018-05-07T17:26:14.404Z,24.00
2018-05-07T17:28:45.733Z,24.00
2018-05-07T17:31:17.137Z,24.00
2018-05-07T17:33:48.587Z,24.00
2018-05-07T17:36:20.173Z,24.10
2018-05-07T17:38:51.585Z,24.10
2018-05-07T17:41:22.966Z,24.00
2018-05-07T17:43:54.263Z,24.10
2018-05-07T17:49:36.107Z,24.00
2018-05-07T17:52:07.793Z,24.30
2018-05-07T17:54:39.234Z,24.30
2018-05-07T17:57:11.898Z,24.20
2018-05-07T17:59:44.082Z,24.30
2018-05-07T18:02:15.442Z,24.20
2018-05-07T18:04:46.843Z,24.30
2018-05-07T18:07:19.729Z,24.30
2018-05-07T18:09:51.110Z,24.40
2018-05-07T18:12:22.638Z,24.30
2018-05-07T18:14:53.679Z,24.40
2018-05-07T18:17:25.055Z,24.40
2018-05-07T18:19:57.444Z,24.60
2018-05-07T18:22:29.375Z,24.60
2018-05-07T18:25:00.747Z,24.70
2018-05-07T18:27:32.108Z,24.70
2018-05-07T18:30:04.061Z,24.80
2018-05-07T18:32:36.218Z,24.80
2018-05-07T18:35:08.019Z,24.80
2018-05-07T18:37:40.164Z,24.90
2018-05-07T18:40:11.560Z,24.90
2018-05-07T18:42:43.849Z,25.00
2018-05-07T18:45:15.267Z,25.00
2018-05-07T18:47:46.628Z,25.10
2018-05-07T18:50:18.685Z,25.10
2018-05-07T18:52:51.003Z,25.20
2018-05-07T18:55:22.333Z,25.30
2018-05-07T18:57:53.691Z,25.30
2018-05-07T19:00:25.352Z,25.50
2018-05-07T19:02:57.115Z,25.50
2018-05-07T19:05:28.567Z,25.50
2018-05-07T19:08:00.271Z,25.60
2018-05-07T19:10:31.726Z,25.70
2018-05-07T19:13:04.147Z,25.90
2018-05-07T19:15:35.832Z,25.90
2018-05-07T19:18:07.725Z,26.00
2018-05-07T19:20:39.179Z,26.00
2018-05-07T19:23:10.693Z,26.10
2018-05-07T19:25:42.539Z,26.30
2018-05-07T19:28:14.041Z,26.30
2018-05-07T19:30:45.438Z,26.40
2018-05-07T19:33:17.600Z,27.10
2018-05-07T19:35:49.835Z,26.70
2018-05-07T19:38:21.538Z,26.60
2018-05-07T19:40:53.807Z,26.80
2018-05-07T19:43:25.172Z,26.80
2018-05-07T19:45:57.524Z,26.80
2018-05-07T19:48:29.197Z,26.70
2018-05-07T19:51:00.864Z,26.90
2018-05-07T19:53:32.236Z,26.90
2018-05-07T19:56:04.399Z,27.00
2018-05-07T19:58:35.795Z,27.10
2018-05-07T20:01:07.206Z,27.00
2018-05-07T20:03:38.615Z,27.10
2018-05-07T20:06:10.026Z,27.20
2018-05-07T20:08:41.532Z,27.20
2018-05-07T20:11:13.745Z,27.40
2018-05-07T20:13:45.591Z,27.40
2018-05-07T20:16:17.151Z,27.30
2018-05-07T20:18:48.672Z,27.40
2018-05-07T20:21:20.110Z,27.40
2018-05-07T20:23:51.717Z,27.50
2018-05-07T20:26:23.105Z,27.50
2018-05-07T20:28:54.796Z,27.60
2018-05-07T20:31:26.267Z,27.80
2018-05-07T20:33:58.535Z,27.80
2018-05-07T20:36:30.294Z,27.80
2018-05-07T20:39:01.943Z,27.70
2018-05-07T20:41:33.425Z,27.90
2018-05-07T20:44:04.931Z,27.90
2018-05-07T20:46:36.500Z,27.90
2018-05-07T20:49:08.661Z,28.10
2018-05-07T20:51:40.022Z,28.10
2018-05-07T20:54:11.479Z,28.60
2018-05-07T20:56:42.891Z,28.10
2018-05-07T20:59:14.316Z,28.20
2018-05-07T21:01:45.624Z,28.20
2018-05-07T21:04:17.870Z,28.30
2018-05-07T21:06:49.335Z,28.30
2018-05-07T21:09:22.686Z,28.50
2018-05-07T21:11:54.022Z,28.50
2018-05-07T21:14:25.957Z,28.40
2018-05-07T21:16:57.346Z,28.40
2018-05-07T21:19:28.756Z,28.50
2018-05-07T21:22:00.944Z,28.60
2018-05-07T21:24:32.327Z,28.60
2018-05-07T21:27:04.239Z,28.70
2018-05-07T21:29:35.670Z,28.70
2018-05-07T21:32:07.926Z,28.80
2018-05-07T21:34:39.662Z,28.80
2018-05-07T21:37:11.458Z,28.80
2018-05-07T21:39:43.090Z,28.90
2018-05-07T21:42:14.706Z,28.90
2018-05-07T21:44:46.270Z,29.00
2018-05-07T21:47:17.844Z,29.10
2018-05-07T21:49:49.400Z,29.10
2018-05-07T21:52:20.821Z,29.20
2018-05-07T21:54:52.268Z,29.20
2018-05-07T21:57:23.599Z,29.30
2018-05-07T21:59:54.944Z,29.40
2018-05-07T22:02:26.019Z,29.50
2018-05-07T22:04:58.416Z,29.60
2018-05-07T22:07:29.525Z,29.60
2018-05-07T22:10:00.898Z,29.60
2018-05-07T22:12:32.303Z,29.70
2018-05-07T22:15:03.698Z,29.70
2018-05-07T22:17:34.564Z,29.70
2018-05-07T22:20:07.041Z,30.00
2018-05-07T22:22:38.613Z,29.90
2018-05-07T22:25:09.989Z,30.00
2018-05-07T22:27:42.139Z,30.00
2018-05-07T22:30:13.558Z,30.10
2018-05-07T22:32:45.221Z,30.20
2018-05-07T22:35:16.595Z,30.20
2018-05-07T22:37:48.274Z,30.30
2018-05-07T22:40:19.497Z,30.40
2018-05-07T22:42:51.805Z,30.40
2018-05-07T22:45:23.627Z,30.30
2018-05-07T22:47:55.019Z,30.50
2018-05-07T22:50:26.398Z,30.40
2018-05-07T22:52:58.043Z,30.50
2018-05-07T22:55:29.406Z,30.70
2018-05-07T22:58:00.767Z,30.70
2018-05-07T23:00:32.167Z,30.70
2018-05-07T23:03:03.522Z,30.80
2018-05-07T23:05:35.848Z,31.00
2018-05-07T23:08:07.359Z,31.00
2018-05-07T23:10:38.747Z,31.00
2018-05-07T23:13:10.133Z,31.10
2018-05-07T23:15:41.499Z,31.30
2018-05-07T23:18:13.431Z,31.30
2018-05-07T23:20:45.582Z,31.20
2018-05-07T23:23:16.984Z,31.60
2018-05-07T23:25:48.405Z,31.60
2018-05-07T23:28:19.790Z,31.70
2018-05-07T23:30:51.895Z,31.80
2018-05-07T23:33:23.253Z,31.80
2018-05-07T23:35:54.425Z,31.80
2018-05-07T23:38:26.588Z,32.00
2018-05-07T23:40:58.176Z,32.00
2018-05-07T23:43:29.506Z,32.00
2018-05-07T23:46:00.901Z,32.10
2018-05-07T23:48:32.223Z,32.30
2018-05-07T23:51:03.440Z,32.30
2018-05-07T23:53:34.680Z,32.50
2018-05-07T23:56:05.893Z,32.50
2018-05-07T23:58:37.211Z,32.50
